!!! Benutzen Sie für Ihre Flugvorbereitung die offiziellen Quellen !!!

Metar:

EDQM 141750Z 22007KT CAVOK 17/12 Q1016

QNH: 1016
Temperatur: 17
Dew Point : 12

 

METAR (decoded)